createdAt,value
2023-01-29T00:02:59.154Z,70.2
2023-01-29T00:08:36.114Z,70
2023-01-29T00:14:48.012Z,70.4
2023-01-29T00:20:27.755Z,70.3
2023-01-29T00:26:07.741Z,70
2023-01-29T00:31:43.237Z,70.2
2023-01-29T00:37:43.954Z,70.1
2023-01-29T00:43:19.019Z,69.8
2023-01-29T00:48:57.085Z,69.8
2023-01-29T00:54:43.293Z,69.8
2023-01-29T01:00:28.419Z,69.9
2023-01-29T01:06:13.686Z,69.9
2023-01-29T01:11:49.096Z,69.9
2023-01-29T01:17:25.445Z,70.3
2023-01-29T01:23:01.332Z,70.3
2023-01-29T01:28:37.925Z,70.1
2023-01-29T01:34:39.126Z,70
2023-01-29T01:40:15.415Z,70
2023-01-29T01:46:17.461Z,70.1
2023-01-29T01:52:00.426Z,70.2
2023-01-29T01:57:45.137Z,70.1
2023-01-29T02:03:24.480Z,70.2
2023-01-29T02:09:20.233Z,70.1
2023-01-29T02:14:55.393Z,70.4
2023-01-29T02:20:33.125Z,70.1
2023-01-29T02:26:09.413Z,69.9
2023-01-29T02:31:47.468Z,70.3
2023-01-29T02:37:22.853Z,70.1
2023-01-29T02:42:59.405Z,70.2
2023-01-29T02:48:36.899Z,70.4
2023-01-29T02:54:19.981Z,70.2
2023-01-29T02:59:59.679Z,70.3
2023-01-29T03:05:40.122Z,70.2
2023-01-29T03:12:38.789Z,70.3
2023-01-29T03:18:23.609Z,70.3
2023-01-29T03:24:26.146Z,70.3
2023-01-29T03:30:02.732Z,70.3
2023-01-29T03:37:01.438Z,70.4
2023-01-29T03:42:43.113Z,69.9
2023-01-29T03:48:20.203Z,70.3
2023-01-29T03:53:59.157Z,70.2
2023-01-29T04:00:01.111Z,70.4
2023-01-29T04:05:44.255Z,70.5
2023-01-29T04:11:19.591Z,70.5
2023-01-29T04:16:55.486Z,70.3
2023-01-29T04:22:47.515Z,70.4
2023-01-29T04:28:30.114Z,70.4
2023-01-29T04:34:07.887Z,70.5
2023-01-29T04:39:45.815Z,70.6
2023-01-29T04:45:22.973Z,70.4
2023-01-29T04:50:58.454Z,70.3
2023-01-29T04:56:55.366Z,70.3
2023-01-29T05:02:38.586Z,70.4
2023-01-29T05:08:35.976Z,70.2
2023-01-29T05:14:15.294Z,70.2
2023-01-29T05:19:50.970Z,70.3
2023-01-29T05:25:28.532Z,70.3
2023-01-29T05:31:18.364Z,70.4
2023-01-29T05:37:03.301Z,70.4
2023-01-29T05:42:51.234Z,70.4
2023-01-29T05:48:29.588Z,70.4
2023-01-29T05:54:21.827Z,70.4
2023-01-29T06:00:21.783Z,70.5
2023-01-29T06:05:59.613Z,70.3
2023-01-29T06:11:53.818Z,70.4
2023-01-29T06:17:40.884Z,70.2
2023-01-29T06:23:18.870Z,70.2
2023-01-29T06:29:02.024Z,70.3
2023-01-29T06:34:42.416Z,70
2023-01-29T06:40:18.737Z,70.1
2023-01-29T06:45:54.617Z,70.4
2023-01-29T06:51:31.437Z,70.1
2023-01-29T06:57:07.036Z,70.2
2023-01-29T07:02:51.031Z,70.2
2023-01-29T07:08:31.400Z,70.2
2023-01-29T07:14:17.714Z,70
2023-01-29T07:20:01.885Z,70
2023-01-29T07:25:37.252Z,70.1
2023-01-29T07:31:15.655Z,70.2
2023-01-29T07:36:52.272Z,70.4
2023-01-29T07:42:27.565Z,70.2
2023-01-29T07:48:24.564Z,70.1
2023-01-29T07:54:08.645Z,74.2
2023-01-29T07:59:43.715Z,76.8
2023-01-29T08:05:18.875Z,77.6
2023-01-29T08:10:53.781Z,77.5
2023-01-29T08:16:29.746Z,77.7
2023-01-29T08:22:06.019Z,77.4
2023-01-29T08:27:42.386Z,78.2
2023-01-29T08:33:39.711Z,78
2023-01-29T08:39:35.692Z,77.9
2023-01-29T08:45:11.485Z,77.6
2023-01-29T08:50:47.619Z,78.2
2023-01-29T08:56:22.657Z,77.2
2023-01-29T09:02:01.200Z,76.6
2023-01-29T09:07:37.019Z,76.5
2023-01-29T09:13:33.268Z,75.9
2023-01-29T09:19:17.205Z,76.5
2023-01-29T09:24:52.547Z,75.7
2023-01-29T09:30:27.835Z,75.2
2023-01-29T09:36:04.231Z,74.4
2023-01-29T09:41:42.049Z,73.3
2023-01-29T09:47:17.040Z,72.3
2023-01-29T09:52:55.543Z,72
2023-01-29T09:58:42.080Z,71.7
2023-01-29T10:04:21.874Z,71.6
2023-01-29T10:09:58.447Z,72
2023-01-29T10:15:33.432Z,71.7
2023-01-29T10:21:09.408Z,71.8
2023-01-29T10:26:47.945Z,72.6
2023-01-29T10:32:23.581Z,72.8
2023-01-29T10:37:59.891Z,72.9
2023-01-29T10:43:43.331Z,70.1
2023-01-29T10:49:36.866Z,70.3
2023-01-29T10:55:11.953Z,70.9
2023-01-29T11:01:04.427Z,70.7
2023-01-29T11:06:39.919Z,68.8
2023-01-29T11:12:44.195Z,67.5
2023-01-29T11:18:19.426Z,68
2023-01-29T11:23:55.356Z,68.1
2023-01-29T11:29:30.672Z,65.4
2023-01-29T11:35:08.249Z,66.3
2023-01-29T11:40:44.616Z,66.1
2023-01-29T11:46:19.837Z,66.6
2023-01-29T11:52:06.899Z,66.8
2023-01-29T11:57:43.482Z,66.6
2023-01-29T12:03:33.244Z,67.2
2023-01-29T12:09:24.263Z,68.6
2023-01-29T12:15:02.012Z,68.8
2023-01-29T12:20:37.459Z,68.7
2023-01-29T12:26:13.915Z,69.3
2023-01-29T12:31:49.685Z,69.2
2023-01-29T12:37:24.837Z,68.2
2023-01-29T12:43:11.027Z,69.2
2023-01-29T12:49:06.972Z,68.9
2023-01-29T12:54:42.292Z,67.7
2023-01-29T13:00:18.310Z,66.5
2023-01-29T13:05:55.730Z,67.9
2023-01-29T13:11:33.866Z,67.7
2023-01-29T13:17:11.754Z,68.2
2023-01-29T13:23:15.203Z,69.3
2023-01-29T13:28:53.359Z,67.9
2023-01-29T13:34:32.602Z,68.9
2023-01-29T13:40:07.834Z,69.5
2023-01-29T13:45:45.451Z,70.2
2023-01-29T13:51:36.054Z,70.6
2023-01-29T13:57:29.717Z,70.4
2023-01-29T14:03:07.702Z,69.8
2023-01-29T14:08:45.128Z,69.4
2023-01-29T14:14:20.092Z,70
2023-01-29T14:19:55.355Z,70.1
2023-01-29T14:25:36.007Z,70.3
2023-01-29T14:31:32.800Z,69.4
2023-01-29T14:37:15.240Z,69
2023-01-29T14:42:51.193Z,68.6
2023-01-29T14:48:27.110Z,69.8
2023-01-29T14:54:05.403Z,69.8
2023-01-29T15:00:01.343Z,69.7
2023-01-29T15:05:46.999Z,69.5
2023-01-29T15:11:35.072Z,70.4
2023-01-29T15:17:11.661Z,69.4
2023-01-29T15:22:58.274Z,70.1
2023-01-29T15:28:39.913Z,70.5
2023-01-29T15:34:33.105Z,70.7
2023-01-29T15:40:08.303Z,69.7
2023-01-29T15:45:47.263Z,69.9
2023-01-29T15:51:27.459Z,71.8
2023-01-29T15:57:02.549Z,72.7
2023-01-29T16:02:45.964Z,71.5
2023-01-29T16:08:30.360Z,72.2
2023-01-29T16:14:16.273Z,72
2023-01-29T16:19:55.822Z,72.5
2023-01-29T16:25:35.410Z,72.4
2023-01-29T16:31:26.953Z,72.9
2023-01-29T16:37:03.788Z,73.8
2023-01-29T16:42:41.768Z,74.4
2023-01-29T16:48:17.712Z,74.4
2023-01-29T16:54:13.896Z,77.1
2023-01-29T16:59:53.706Z,76
2023-01-29T17:05:33.996Z,76.2
2023-01-29T17:11:12.593Z,75.8
2023-01-29T17:16:47.783Z,75.8
2023-01-29T17:22:31.512Z,76.8
2023-01-29T17:28:07.247Z,76.7
2023-01-29T17:33:46.392Z,76.6
2023-01-29T17:39:22.838Z,76.8
2023-01-29T17:44:58.250Z,77
2023-01-29T17:50:39.371Z,75.4
2023-01-29T17:56:18.164Z,73.5
2023-01-29T18:01:56.114Z,72.5
2023-01-29T18:07:32.053Z,71.8
2023-01-29T18:13:16.789Z,71.5
2023-01-29T18:19:03.307Z,71.7
2023-01-29T18:24:51.231Z,71.6
2023-01-29T18:30:28.791Z,70.8
2023-01-29T18:36:04.823Z,71.1
2023-01-29T18:41:53.425Z,70.7
2023-01-29T18:47:32.888Z,70.6
2023-01-29T18:53:41.471Z,69.6
2023-01-29T18:59:22.922Z,69.8
2023-01-29T19:05:33.949Z,70.5
2023-01-29T19:11:39.503Z,69.9
2023-01-29T19:17:21.268Z,69.8
2023-01-29T19:23:02.610Z,69.4
2023-01-29T19:28:42.830Z,70.1
2023-01-29T19:34:46.095Z,70.2
2023-01-29T19:40:23.229Z,70.2
2023-01-29T19:46:00.964Z,70.2
2023-01-29T19:51:36.411Z,70
2023-01-29T19:57:12.183Z,70.6
2023-01-29T20:02:53.488Z,70.2
2023-01-29T20:08:40.036Z,70.3
2023-01-29T20:14:26.862Z,70.5
2023-01-29T20:20:33.891Z,70.2
2023-01-29T20:26:12.831Z,70.1
2023-01-29T20:32:04.815Z,70.2
2023-01-29T20:37:49.546Z,70.1
2023-01-29T20:43:48.963Z,70.2
2023-01-29T20:49:51.334Z,70
2023-01-29T20:55:24.272Z,69.4
2023-01-29T21:01:02.837Z,69.8
2023-01-29T21:06:38.844Z,70.1
2023-01-29T21:12:19.585Z,70
2023-01-29T21:18:01.193Z,69.8
2023-01-29T21:24:15.980Z,69.7
2023-01-29T21:30:13.599Z,70
2023-01-29T21:35:56.574Z,69.4
2023-01-29T21:41:50.136Z,69.6
2023-01-29T21:48:04.934Z,70
2023-01-29T21:53:48.871Z,70.2
2023-01-29T21:59:27.993Z,70.2
2023-01-29T22:05:20.120Z,70.5
2023-01-29T22:10:59.860Z,70.8
2023-01-29T22:16:37.198Z,70.4
2023-01-29T22:22:16.705Z,70.3
2023-01-29T22:27:52.080Z,70.3
2023-01-29T22:33:30.107Z,70
2023-01-29T22:39:07.642Z,70.4
2023-01-29T22:45:03.302Z,70.3
2023-01-29T22:50:38.865Z,70.4
2023-01-29T22:56:28.436Z,70.5
2023-01-29T23:03:13.557Z,70.5
2023-01-29T23:08:57.675Z,70.2
2023-01-29T23:15:22.432Z,70
2023-01-29T23:21:07.561Z,70.1
2023-01-29T23:26:45.921Z,70
2023-01-29T23:32:22.197Z,70
2023-01-29T23:38:01.415Z,70.3
2023-01-29T23:43:45.792Z,70.4
2023-01-29T23:49:27.311Z,70.4
2023-01-29T23:55:15.994Z,70.4
